Terminal Aerodrome Forecast
Issued by NWS

Home | Current Version | Previous Version | Text Only | Print | Product List | Glossary On
Versions: 1 2 3 4 5 6 7 8 9 10 11 12 13 14 15 16
000
FTUS43 KGRB 201722
TAFCWA
TAF
KCWA 201722Z 2018/2118 19010KT P6SM BKN200
     FM202300 20010KT P6SM BKN140 WS016/23040KT
     FM210200 23011KT P6SM SCT140 BKN250 WS016/26050KT
     FM210600 25011KT P6SM SCT140 BKN250 WS016/29040KT
     FM210900 27012G18KT P6SM SCT040 OVC120 WS016/29035KT
     FM211300 30015G24KT P6SM BKN035
     FM211600 30017G27KT P6SM BKN040=

USA.gov is the U.S. government's official web portal to all federal, state and local government web resources and services.